sensor_id;sensor_type;location;lat;lon;timestamp;pressure;altitude;pressure_sealevel;temperature;humidity
72210;BME280;60113;48.762;12.302;2023-04-26T00:01:52;97120.72;;;3.95;76.22
72210;BME280;60113;48.762;12.302;2023-04-26T00:04:18;97121.03;;;3.89;76.66
72210;BME280;60113;48.762;12.302;2023-04-26T00:06:43;97121.34;;;3.83;74.56
72210;BME280;60113;48.762;12.302;2023-04-26T00:09:10;97126.78;;;3.78;74.35
72210;BME280;60113;48.762;12.302;2023-04-26T00:11:35;97121.75;;;3.75;74.41
72210;BME280;60113;48.762;12.302;2023-04-26T00:14:01;97131.44;;;3.71;75.06
72210;BME280;60113;48.762;12.302;2023-04-26T00:16:26;97121.19;;;3.68;80.32
72210;BME280;60113;48.762;12.302;2023-04-26T00:18:52;97130.88;;;3.65;82.11
72210;BME280;60113;48.762;12.302;2023-04-26T00:21:18;97129.53;;;3.57;82.93
72210;BME280;60113;48.762;12.302;2023-04-26T00:23:43;97123.63;;;3.54;80.78
72210;BME280;60113;48.762;12.302;2023-04-26T00:26:09;97120.22;;;3.53;82.62
72210;BME280;60113;48.762;12.302;2023-04-26T00:28:35;97137.47;;;3.54;80.93
72210;BME280;60113;48.762;12.302;2023-04-26T00:31:00;97133.28;;;3.52;80.29
72210;BME280;60113;48.762;12.302;2023-04-26T00:33:26;97136.47;;;3.57;83.84
72210;BME280;60113;48.762;12.302;2023-04-26T00:35:51;97137.25;;;3.59;85.83
72210;BME280;60113;48.762;12.302;2023-04-26T00:38:17;97131.97;;;3.60;86.54
72210;BME280;60113;48.762;12.302;2023-04-26T00:40:42;97135.41;;;3.61;84.00
72210;BME280;60113;48.762;12.302;2023-04-26T00:43:08;97140.38;;;3.66;85.87
72210;BME280;60113;48.762;12.302;2023-04-26T00:45:33;97147.25;;;3.67;85.12
72210;BME280;60113;48.762;12.302;2023-04-26T00:48:01;97146.50;;;3.65;83.99
72210;BME280;60113;48.762;12.302;2023-04-26T00:50:28;97144.75;;;3.65;84.17
72210;BME280;60113;48.762;12.302;2023-04-26T00:52:55;97142.06;;;3.67;87.30
72210;BME280;60113;48.762;12.302;2023-04-26T00:55:22;97135.19;;;3.66;86.61
72210;BME280;60113;48.762;12.302;2023-04-26T00:57:48;97134.41;;;3.63;83.86
72210;BME280;60113;48.762;12.302;2023-04-26T01:00:14;97132.66;;;3.64;82.89
72210;BME280;60113;48.762;12.302;2023-04-26T01:02:40;97132.66;;;3.64;82.81
72210;BME280;60113;48.762;12.302;2023-04-26T01:05:06;97137.03;;;3.63;83.90
72210;BME280;60113;48.762;12.302;2023-04-26T01:07:33;97137.78;;;3.66;85.39
72210;BME280;60113;48.762;12.302;2023-04-26T01:10:01;97136.88;;;3.67;82.89
72210;BME280;60113;48.762;12.302;2023-04-26T01:12:29;97143.81;;;3.66;82.80
72210;BME280;60113;48.762;12.302;2023-04-26T01:14:55;97148.19;;;3.66;82.50
72210;BME280;60113;48.762;12.302;2023-04-26T01:17:21;97145.59;;;3.66;86.01
72210;BME280;60113;48.762;12.302;2023-04-26T01:19:49;97146.56;;;3.63;85.28
72210;BME280;60113;48.762;12.302;2023-04-26T01:22:15;97140.47;;;3.64;85.25
72210;BME280;60113;48.762;12.302;2023-04-26T01:24:45;97146.50;;;3.65;86.32
72210;BME280;60113;48.762;12.302;2023-04-26T01:27:12;97138.75;;;3.63;86.91
72210;BME280;60113;48.762;12.302;2023-04-26T01:29:38;97138.84;;;3.61;86.17
72210;BME280;60113;48.762;12.302;2023-04-26T01:32:04;97138.16;;;3.58;84.58
72210;BME280;60113;48.762;12.302;2023-04-26T01:34:29;97130.31;;;3.59;86.22
72210;BME280;60113;48.762;12.302;2023-04-26T01:36:57;97130.44;;;3.56;86.31
72210;BME280;60113;48.762;12.302;2023-04-26T01:39:23;97136.47;;;3.57;86.03
72210;BME280;60113;48.762;12.302;2023-04-26T01:41:48;97144.25;;;3.57;88.45
72210;BME280;60113;48.762;12.302;2023-04-26T01:44:13;97146.19;;;3.53;86.62
72210;BME280;60113;48.762;12.302;2023-04-26T01:46:39;97141.16;;;3.50;85.12
72210;BME280;60113;48.762;12.302;2023-04-26T01:49:05;97144.78;;;3.46;85.87
72210;BME280;60113;48.762;12.302;2023-04-26T01:51:31;97144.13;;;3.42;88.32
72210;BME280;60113;48.762;12.302;2023-04-26T01:53:57;97152.97;;;3.38;88.52
72210;BME280;60113;48.762;12.302;2023-04-26T01:56:22;97151.50;;;3.32;87.81
72210;BME280;60113;48.762;12.302;2023-04-26T01:58:48;97150.91;;;3.27;88.62
72210;BME280;60113;48.762;12.302;2023-04-26T02:01:13;97148.59;;;3.21;89.26
72210;BME280;60113;48.762;12.302;2023-04-26T02:03:39;97150.63;;;3.14;88.75
72210;BME280;60113;48.762;12.302;2023-04-26T02:06:05;97163.06;;;3.07;88.68
72210;BME280;60113;48.762;12.302;2023-04-26T02:08:30;97163.41;;;2.99;87.58
72210;BME280;60113;48.762;12.302;2023-04-26T02:10:56;97158.59;;;2.92;85.92
72210;BME280;60113;48.762;12.302;2023-04-26T02:13:21;97165.91;;;2.83;84.99
72210;BME280;60113;48.762;12.302;2023-04-26T02:15:48;97158.53;;;2.74;85.02
72210;BME280;60113;48.762;12.302;2023-04-26T02:18:14;97162.47;;;2.64;82.73
72210;BME280;60113;48.762;12.302;2023-04-26T02:20:40;97157.69;;;2.54;83.16
72210;BME280;60113;48.762;12.302;2023-04-26T02:23:10;97160.56;;;2.48;82.14
72210;BME280;60113;48.762;12.302;2023-04-26T02:25:37;97162.59;;;2.41;82.80
72210;BME280;60113;48.762;12.302;2023-04-26T02:28:03;97168.16;;;2.32;83.53
72210;BME280;60113;48.762;12.302;2023-04-26T02:30:29;97159.94;;;2.22;82.34
72210;BME280;60113;48.762;12.302;2023-04-26T02:32:55;97172.34;;;2.15;82.48
72210;BME280;60113;48.762;12.302;2023-04-26T02:35:21;97164.06;;;2.07;81.25
72210;BME280;60113;48.762;12.302;2023-04-26T02:37:47;97162.56;;;2.01;83.37
72210;BME280;60113;48.762;12.302;2023-04-26T02:40:16;97173.19;;;1.95;83.67
72210;BME280;60113;48.762;12.302;2023-04-26T02:42:42;97164.84;;;1.88;84.71
72210;BME280;60113;48.762;12.302;2023-04-26T02:45:07;97167.75;;;1.80;84.49
72210;BME280;60113;48.762;12.302;2023-04-26T02:47:33;97172.38;;;1.73;85.04
72210;BME280;60113;48.762;12.302;2023-04-26T02:50:01;97167.63;;;1.62;79.69
72210;BME280;60113;48.762;12.302;2023-04-26T02:52:28;97168.88;;;1.52;78.59
72210;BME280;60113;48.762;12.302;2023-04-26T02:54:53;97163.44;;;1.37;76.34
72210;BME280;60113;48.762;12.302;2023-04-26T02:57:19;97170.84;;;1.24;75.64
72210;BME280;60113;48.762;12.302;2023-04-26T02:59:44;97172.13;;;1.14;80.80
72210;BME280;60113;48.762;12.302;2023-04-26T03:02:10;97168.22;;;1.04;84.88
72210;BME280;60113;48.762;12.302;2023-04-26T03:04:35;97166.91;;;0.92;82.62
72210;BME280;60113;48.762;12.302;2023-04-26T03:07:02;97167.16;;;0.85;87.91
72210;BME280;60113;48.762;12.302;2023-04-26T03:09:28;97170.94;;;0.77;89.51
72210;BME280;60113;48.762;12.302;2023-04-26T03:11:53;97178.06;;;0.70;86.93
72210;BME280;60113;48.762;12.302;2023-04-26T03:14:18;97172.25;;;0.65;84.46
72210;BME280;60113;48.762;12.302;2023-04-26T03:16:45;97171.63;;;0.58;78.25
72210;BME280;60113;48.762;12.302;2023-04-26T03:19:13;97176.13;;;0.53;76.93
72210;BME280;60113;48.762;12.302;2023-04-26T03:21:38;97177.94;;;0.51;76.98
72210;BME280;60113;48.762;12.302;2023-04-26T03:24:04;97176.25;;;0.49;82.15
72210;BME280;60113;48.762;12.302;2023-04-26T03:26:30;97179.81;;;0.45;81.52
72210;BME280;60113;48.762;12.302;2023-04-26T03:28:56;97180.84;;;0.41;82.23
72210;BME280;60113;48.762;12.302;2023-04-26T03:31:21;97175.09;;;0.33;83.45
72210;BME280;60113;48.762;12.302;2023-04-26T03:33:47;97184.88;;;0.24;78.16
72210;BME280;60113;48.762;12.302;2023-04-26T03:36:13;97184.25;;;0.18;77.35
72210;BME280;60113;48.762;12.302;2023-04-26T03:38:38;97186.09;;;0.14;78.31
72210;BME280;60113;48.762;12.302;2023-04-26T03:41:04;97185.41;;;0.09;81.17
72210;BME280;60113;48.762;12.302;2023-04-26T03:43:30;97184.63;;;0.07;87.11
72210;BME280;60113;48.762;12.302;2023-04-26T03:45:55;97191.75;;;0.00;83.93
72210;BME280;60113;48.762;12.302;2023-04-26T03:48:21;97189.22;;;-0.02;85.10
72210;BME280;60113;48.762;12.302;2023-04-26T03:50:46;97191.09;;;-0.07;85.08
72210;BME280;60113;48.762;12.302;2023-04-26T03:53:11;97191.09;;;-0.07;88.34
72210;BME280;60113;48.762;12.302;2023-04-26T03:55:37;97186.03;;;-0.10;91.35
72210;BME280;60113;48.762;12.302;2023-04-26T03:58:03;97203.97;;;-0.05;95.73
72210;BME280;60113;48.762;12.302;2023-04-26T04:00:40;97192.78;;;-0.06;95.64
72210;BME280;60113;48.762;12.302;2023-04-26T04:03:06;97201.50;;;-0.08;94.98
72210;BME280;60113;48.762;12.302;2023-04-26T04:05:32;97201.50;;;-0.08;89.15
72210;BME280;60113;48.762;12.302;2023-04-26T04:07:58;97199.63;;;-0.03;93.17
72210;BME280;60113;48.762;12.302;2023-04-26T04:10:24;97191.97;;;-0.06;88.16
72210;BME280;60113;48.762;12.302;2023-04-26T04:12:50;97197.91;;;-0.04;84.43
72210;BME280;60113;48.762;12.302;2023-04-26T04:15:17;97197.47;;;0.08;90.00
72210;BME280;60113;48.762;12.302;2023-04-26T04:17:43;97204.22;;;0.12;85.62
72210;BME280;60113;48.762;12.302;2023-04-26T04:20:09;97203.19;;;0.18;80.39
72210;BME280;60113;48.762;12.302;2023-04-26T04:22:35;97208.91;;;0.27;82.87
72210;BME280;60113;48.762;12.302;2023-04-26T04:25:00;97213.91;;;0.31;82.08
72210;BME280;60113;48.762;12.302;2023-04-26T04:27:27;97206.06;;;0.34;81.93
72210;BME280;60113;48.762;12.302;2023-04-26T04:29:53;97218.06;;;0.37;77.57
72210;BME280;60113;48.762;12.302;2023-04-26T04:32:20;97220.59;;;0.39;82.57
72210;BME280;60113;48.762;12.302;2023-04-26T04:34:47;97218.78;;;0.41;81.56
72210;BME280;60113;48.762;12.302;2023-04-26T04:37:12;97220.53;;;0.40;75.68
72210;BME280;60113;48.762;12.302;2023-04-26T04:39:38;97217.72;;;0.46;82.21
72210;BME280;60113;48.762;12.302;2023-04-26T04:42:04;97213.31;;;0.48;81.89
72210;BME280;60113;48.762;12.302;2023-04-26T04:44:29;97219.13;;;0.55;82.72
72210;BME280;60113;48.762;12.302;2023-04-26T04:46:56;97222.34;;;0.62;83.34
72210;BME280;60113;48.762;12.302;2023-04-26T04:49:22;97227.16;;;0.71;86.09
72210;BME280;60113;48.762;12.302;2023-04-26T04:51:49;97231.28;;;0.77;86.85
72210;BME280;60113;48.762;12.302;2023-04-26T04:54:16;97230.16;;;0.84;87.33
72210;BME280;60113;48.762;12.302;2023-04-26T04:56:42;97229.88;;;0.92;87.11
72210;BME280;60113;48.762;12.302;2023-04-26T04:59:08;97233.84;;;1.01;87.18
72210;BME280;60113;48.762;12.302;2023-04-26T05:01:34;97233.44;;;1.12;89.48
72210;BME280;60113;48.762;12.302;2023-04-26T05:04:06;97239.69;;;1.30;90.18
72210;BME280;60113;48.762;12.302;2023-04-26T05:06:31;97245.03;;;1.48;89.18
72210;BME280;60113;48.762;12.302;2023-04-26T05:08:58;97243.81;;;1.79;90.62
72210;BME280;60113;48.762;12.302;2023-04-26T05:11:23;97247.25;;;2.00;90.25
72210;BME280;60113;48.762;12.302;2023-04-26T05:13:49;97253.66;;;2.12;87.60
72210;BME280;60113;48.762;12.302;2023-04-26T05:16:15;97252.19;;;2.28;85.14
72210;BME280;60113;48.762;12.302;2023-04-26T05:18:40;97246.56;;;2.39;84.37
72210;BME280;60113;48.762;12.302;2023-04-26T05:21:06;97246.84;;;2.52;83.81
72210;BME280;60113;48.762;12.302;2023-04-26T05:23:31;97245.56;;;2.62;82.78
72210;BME280;60113;48.762;12.302;2023-04-26T05:26:02;97249.22;;;2.77;82.60
72210;BME280;60113;48.762;12.302;2023-04-26T05:28:29;97250.28;;;2.92;81.75
72210;BME280;60113;48.762;12.302;2023-04-26T05:30:55;97247.72;;;3.11;82.62
72210;BME280;60113;48.762;12.302;2023-04-26T05:33:20;97243.13;;;3.36;84.02
72210;BME280;60113;48.762;12.302;2023-04-26T05:35:47;97250.19;;;3.52;82.81
72210;BME280;60113;48.762;12.302;2023-04-26T05:38:12;97251.66;;;3.57;80.28
72210;BME280;60113;48.762;12.302;2023-04-26T05:40:38;97252.13;;;3.66;81.29
72210;BME280;60113;48.762;12.302;2023-04-26T05:43:03;97246.72;;;3.70;79.48
72210;BME280;60113;48.762;12.302;2023-04-26T05:45:29;97262.75;;;3.79;80.72
72210;BME280;60113;48.762;12.302;2023-04-26T05:47:54;97261.44;;;3.89;80.26
72210;BME280;60113;48.762;12.302;2023-04-26T05:50:20;97266.19;;;3.98;82.46
72210;BME280;60113;48.762;12.302;2023-04-26T05:52:46;97268.22;;;4.09;79.93
72210;BME280;60113;48.762;12.302;2023-04-26T05:55:20;97263.09;;;4.25;79.99
72210;BME280;60113;48.762;12.302;2023-04-26T05:57:47;97255.53;;;4.38;78.41
72210;BME280;60113;48.762;12.302;2023-04-26T06:00:13;97255.81;;;4.50;76.39
72210;BME280;60113;48.762;12.302;2023-04-26T06:02:39;97263.16;;;4.59;74.84
72210;BME280;60113;48.762;12.302;2023-04-26T06:05:05;97262.75;;;4.67;73.23
72210;BME280;60113;48.762;12.302;2023-04-26T06:07:31;97266.19;;;5.02;72.92
72210;BME280;60113;48.762;12.302;2023-04-26T06:09:57;97266.97;;;5.36;72.02
72210;BME280;60113;48.762;12.302;2023-04-26T06:12:22;97267.38;;;5.77;71.29
72210;BME280;60113;48.762;12.302;2023-04-26T06:14:48;97278.63;;;5.93;69.58
72210;BME280;60113;48.762;12.302;2023-04-26T06:17:13;97282.81;;;5.96;70.44
72210;BME280;60113;48.762;12.302;2023-04-26T06:19:39;97284.28;;;5.85;68.51
72210;BME280;60113;48.762;12.302;2023-04-26T06:22:04;97283.94;;;5.75;69.28
72210;BME280;60113;48.762;12.302;2023-04-26T06:24:30;97288.75;;;5.67;68.66
72210;BME280;60113;48.762;12.302;2023-04-26T06:26:55;97277.47;;;5.67;68.70
72210;BME280;60113;48.762;12.302;2023-04-26T06:29:20;97279.16;;;5.68;67.85
72210;BME280;60113;48.762;12.302;2023-04-26T06:31:46;97277.91;;;5.75;68.48
72210;BME280;60113;48.762;12.302;2023-04-26T06:34:11;97273.25;;;5.80;68.35
72210;BME280;60113;48.762;12.302;2023-04-26T06:36:37;97275.94;;;5.79;68.39
72210;BME280;60113;48.762;12.302;2023-04-26T06:39:02;97272.34;;;5.81;69.64
72210;BME280;60113;48.762;12.302;2023-04-26T06:41:28;97274.34;;;5.92;69.08
72210;BME280;60113;48.762;12.302;2023-04-26T06:43:53;97277.25;;;6.02;69.16
72210;BME280;60113;48.762;12.302;2023-04-26T06:46:19;97286.25;;;6.12;68.61
72210;BME280;60113;48.762;12.302;2023-04-26T06:48:45;97301.28;;;6.23;68.55
72210;BME280;60113;48.762;12.302;2023-04-26T06:51:10;97299.44;;;6.25;66.43
72210;BME280;60113;48.762;12.302;2023-04-26T06:53:36;97300.28;;;6.26;66.15
72210;BME280;60113;48.762;12.302;2023-04-26T06:56:01;97307.78;;;6.32;66.93
72210;BME280;60113;48.762;12.302;2023-04-26T06:58:27;97302.47;;;6.34;66.83
72210;BME280;60113;48.762;12.302;2023-04-26T07:00:52;97300.56;;;6.36;65.89
72210;BME280;60113;48.762;12.302;2023-04-26T07:03:18;97304.53;;;6.43;67.21
72210;BME280;60113;48.762;12.302;2023-04-26T07:05:43;97308.19;;;6.55;67.44
72210;BME280;60113;48.762;12.302;2023-04-26T07:08:09;97305.50;;;6.71;67.09
72210;BME280;60113;48.762;12.302;2023-04-26T07:10:35;97311.38;;;6.75;65.56
72210;BME280;60113;48.762;12.302;2023-04-26T07:13:00;97305.59;;;6.84;65.72
72210;BME280;60113;48.762;12.302;2023-04-26T07:15:26;97307.41;;;6.98;65.36
72210;BME280;60113;48.762;12.302;2023-04-26T07:17:52;97300.66;;;7.09;63.80
72210;BME280;60113;48.762;12.302;2023-04-26T07:20:17;97306.72;;;7.38;63.84
72210;BME280;60113;48.762;12.302;2023-04-26T07:22:45;97305.00;;;7.52;61.61
72210;BME280;60113;48.762;12.302;2023-04-26T07:25:11;97300.50;;;7.69;63.76
72210;BME280;60113;48.762;12.302;2023-04-26T07:27:36;97298.47;;;7.87;64.72
72210;BME280;60113;48.762;12.302;2023-04-26T07:30:02;97304.00;;;8.10;67.20
72210;BME280;60113;48.762;12.302;2023-04-26T07:32:29;97301.13;;;8.28;66.21
72210;BME280;60113;48.762;12.302;2023-04-26T07:34:55;97307.06;;;8.70;67.74
72210;BME280;60113;48.762;12.302;2023-04-26T07:37:20;97312.09;;;9.12;65.33
72210;BME280;60113;48.762;12.302;2023-04-26T07:39:46;97302.03;;;9.57;68.57
72210;BME280;60113;48.762;12.302;2023-04-26T07:42:11;97300.47;;;9.92;64.43
72210;BME280;60113;48.762;12.302;2023-04-26T07:44:37;97301.75;;;10.10;65.03
72210;BME280;60113;48.762;12.302;2023-04-26T07:47:02;97296.28;;;10.13;68.97
72210;BME280;60113;48.762;12.302;2023-04-26T07:49:27;97294.19;;;10.30;67.50
72210;BME280;60113;48.762;12.302;2023-04-26T07:51:53;97300.16;;;10.32;68.54
72210;BME280;60113;48.762;12.302;2023-04-26T07:54:20;97292.88;;;10.36;64.15
72210;BME280;60113;48.762;12.302;2023-04-26T07:56:46;97296.81;;;10.30;66.10
72210;BME280;60113;48.762;12.302;2023-04-26T07:59:11;97286.75;;;10.24;64.99
72210;BME280;60113;48.762;12.302;2023-04-26T08:01:37;97292.13;;;10.22;60.51
72210;BME280;60113;48.762;12.302;2023-04-26T08:04:03;97286.19;;;10.32;63.41
72210;BME280;60113;48.762;12.302;2023-04-26T08:06:29;97291.19;;;10.48;61.03
72210;BME280;60113;48.762;12.302;2023-04-26T08:08:55;97288.09;;;10.66;60.91
72210;BME280;60113;48.762;12.302;2023-04-26T08:11:21;97291.13;;;10.95;64.48
72210;BME280;60113;48.762;12.302;2023-04-26T08:13:46;97291.34;;;10.92;56.49
72210;BME280;60113;48.762;12.302;2023-04-26T08:16:12;97293.97;;;10.81;50.24
72210;BME280;60113;48.762;12.302;2023-04-26T08:18:38;97284.03;;;10.73;57.65
72210;BME280;60113;48.762;12.302;2023-04-26T08:21:03;97287.75;;;10.34;45.62
72210;BME280;60113;48.762;12.302;2023-04-26T08:23:32;97286.69;;;10.01;50.74
72210;BME280;60113;48.762;12.302;2023-04-26T08:25:59;97289.31;;;9.77;58.24
72210;BME280;60113;48.762;12.302;2023-04-26T08:28:25;97285.59;;;9.55;54.69
72210;BME280;60113;48.762;12.302;2023-04-26T08:30:50;97290.06;;;9.66;57.86
72210;BME280;60113;48.762;12.302;2023-04-26T08:33:17;97286.91;;;9.73;58.16
72210;BME280;60113;48.762;12.302;2023-04-26T08:35:42;97281.13;;;9.93;53.44
72210;BME280;60113;48.762;12.302;2023-04-26T08:38:08;97289.50;;;10.22;51.23
72210;BME280;60113;48.762;12.302;2023-04-26T08:40:35;97288.75;;;10.45;54.26
72210;BME280;60113;48.762;12.302;2023-04-26T08:43:00;97291.16;;;10.23;50.83
72210;BME280;60113;48.762;12.302;2023-04-26T08:45:26;97284.59;;;10.18;55.98
72210;BME280;60113;48.762;12.302;2023-04-26T08:48:02;97282.44;;;10.47;52.58
72210;BME280;60113;48.762;12.302;2023-04-26T08:50:30;97286.94;;;10.81;51.62
72210;BME280;60113;48.762;12.302;2023-04-26T08:52:57;97283.00;;;11.21;56.32
72210;BME280;60113;48.762;12.302;2023-04-26T08:55:23;97279.88;;;11.28;49.44
72210;BME280;60113;48.762;12.302;2023-04-26T08:57:50;97279.78;;;11.41;49.76
72210;BME280;60113;48.762;12.302;2023-04-26T09:00:16;97279.16;;;11.48;47.48
72210;BME280;60113;48.762;12.302;2023-04-26T09:02:47;97282.97;;;11.56;48.41
72210;BME280;60113;48.762;12.302;2023-04-26T09:05:12;97289.59;;;10.93;48.57
72210;BME280;60113;48.762;12.302;2023-04-26T09:07:40;97290.63;;;10.79;50.90
72210;BME280;60113;48.762;12.302;2023-04-26T09:10:08;97295.44;;;10.85;52.59
72210;BME280;60113;48.762;12.302;2023-04-26T09:12:33;97285.97;;;10.82;49.40
72210;BME280;60113;48.762;12.302;2023-04-26T09:14:59;97285.28;;;11.03;48.21
72210;BME280;60113;48.762;12.302;2023-04-26T09:17:26;97279.75;;;11.29;47.96
72210;BME280;60113;48.762;12.302;2023-04-26T09:19:52;97277.69;;;11.56;50.92
72210;BME280;60113;48.762;12.302;2023-04-26T09:22:34;97284.47;;;11.81;47.01
72210;BME280;60113;48.762;12.302;2023-04-26T09:25:03;97276.28;;;11.96;46.52
72210;BME280;60113;48.762;12.302;2023-04-26T09:38:08;97280.06;;;13.00;42.65
72210;BME280;60113;48.762;12.302;2023-04-26T09:40:44;97276.41;;;12.70;46.00
72210;BME280;60113;48.762;12.302;2023-04-26T09:43:10;97276.63;;;12.35;48.47
72210;BME280;60113;48.762;12.302;2023-04-26T09:46:05;97278.09;;;12.28;44.33
72210;BME280;60113;48.762;12.302;2023-04-26T09:48:34;97269.81;;;12.33;46.64
72210;BME280;60113;48.762;12.302;2023-04-26T09:53:46;97277.28;;;11.83;43.70
72210;BME280;60113;48.762;12.302;2023-04-26T09:58:58;97275.44;;;11.40;45.43
72210;BME280;60113;48.762;12.302;2023-04-26T10:01:29;97277.63;;;11.34;49.66
72210;BME280;60113;48.762;12.302;2023-04-26T10:03:55;97264.56;;;11.44;48.79
72210;BME280;60113;48.762;12.302;2023-04-26T10:06:22;97269.94;;;11.54;51.97
72210;BME280;60113;48.762;12.302;2023-04-26T10:08:47;97272.94;;;11.38;46.19
72210;BME280;60113;48.762;12.302;2023-04-26T10:11:13;97268.41;;;11.17;44.72
72210;BME280;60113;48.762;12.302;2023-04-26T10:13:39;97280.59;;;10.72;46.37
72210;BME280;60113;48.762;12.302;2023-04-26T10:16:09;97281.13;;;10.53;46.17
72210;BME280;60113;48.762;12.302;2023-04-26T10:18:34;97271.06;;;10.35;45.77
72210;BME280;60113;48.762;12.302;2023-04-26T10:21:05;97271.38;;;9.95;46.50
72210;BME280;60113;48.762;12.302;2023-04-26T10:23:31;97267.47;;;9.76;48.94
72210;BME280;60113;48.762;12.302;2023-04-26T10:25:57;97270.47;;;9.58;49.64
72210;BME280;60113;48.762;12.302;2023-04-26T10:31:13;97264.91;;;9.87;51.67
72210;BME280;60113;48.762;12.302;2023-04-26T10:33:38;97259.09;;;9.95;47.35
72210;BME280;60113;48.762;12.302;2023-04-26T10:36:05;97268.75;;;9.95;49.70
72210;BME280;60113;48.762;12.302;2023-04-26T10:38:32;97259.06;;;9.71;47.33
72210;BME280;60113;48.762;12.302;2023-04-26T10:41:35;97262.69;;;9.57;46.74
72210;BME280;60113;48.762;12.302;2023-04-26T10:44:35;97265.66;;;9.52;49.06
72210;BME280;60113;48.762;12.302;2023-04-26T10:47:01;97268.44;;;9.37;50.94
72210;BME280;60113;48.762;12.302;2023-04-26T10:49:26;97271.50;;;9.31;48.81
72210;BME280;60113;48.762;12.302;2023-04-26T10:52:11;97260.03;;;9.32;49.89
72210;BME280;60113;48.762;12.302;2023-04-26T10:54:53;97262.88;;;9.42;49.37
72210;BME280;60113;48.762;12.302;2023-04-26T10:57:20;97262.00;;;9.55;48.80
72210;BME280;60113;48.762;12.302;2023-04-26T11:02:52;97243.50;;;9.56;46.84
72210;BME280;60113;48.762;12.302;2023-04-26T11:05:34;97246.03;;;9.58;47.88
72210;BME280;60113;48.762;12.302;2023-04-26T11:10:28;97240.50;;;9.74;50.50
72210;BME280;60113;48.762;12.302;2023-04-26T11:13:01;97241.00;;;9.79;45.98
72210;BME280;60113;48.762;12.302;2023-04-26T11:15:30;97230.34;;;9.94;47.93
72210;BME280;60113;48.762;12.302;2023-04-26T11:17:56;97230.53;;;10.15;47.01
72210;BME280;60113;48.762;12.302;2023-04-26T11:20:22;97226.97;;;10.28;47.38
72210;BME280;60113;48.762;12.302;2023-04-26T11:22:47;97226.88;;;10.29;46.58
72210;BME280;60113;48.762;12.302;2023-04-26T11:25:13;97226.00;;;10.29;45.69
72210;BME280;60113;48.762;12.302;2023-04-26T11:27:41;97225.31;;;10.38;46.47
72210;BME280;60113;48.762;12.302;2023-04-26T11:30:07;97214.53;;;10.54;47.98
72210;BME280;60113;48.762;12.302;2023-04-26T11:32:33;97216.34;;;10.65;47.50
72210;BME280;60113;48.762;12.302;2023-04-26T11:35:01;97223.00;;;10.69;46.84
72210;BME280;60113;48.762;12.302;2023-04-26T11:37:26;97226.00;;;10.65;45.74
72210;BME280;60113;48.762;12.302;2023-04-26T11:39:52;97233.38;;;10.59;46.74
72210;BME280;60113;48.762;12.302;2023-04-26T11:42:23;97212.13;;;10.85;44.29
72210;BME280;60113;48.762;12.302;2023-04-26T11:44:50;97213.56;;;11.01;48.12
72210;BME280;60113;48.762;12.302;2023-04-26T11:47:17;97211.53;;;10.93;46.91
72210;BME280;60113;48.762;12.302;2023-04-26T11:49:45;97219.41;;;10.70;45.74
72210;BME280;60113;48.762;12.302;2023-04-26T11:52:11;97228.28;;;10.69;48.56
72210;BME280;60113;48.762;12.302;2023-04-26T11:54:37;97230.41;;;10.64;51.60
72210;BME280;60113;48.762;12.302;2023-04-26T11:57:13;97225.25;;;10.62;48.83
72210;BME280;60113;48.762;12.302;2023-04-26T11:59:40;97225.31;;;10.38;46.99
72210;BME280;60113;48.762;12.302;2023-04-26T12:02:05;97223.66;;;10.37;45.94
72210;BME280;60113;48.762;12.302;2023-04-26T12:04:31;97227.44;;;10.33;44.59
72210;BME280;60113;48.762;12.302;2023-04-26T12:06:57;97224.44;;;10.62;45.22
72210;BME280;60113;48.762;12.302;2023-04-26T12:09:26;97218.44;;;10.71;46.24
72210;BME280;60113;48.762;12.302;2023-04-26T12:11:59;97215.38;;;10.66;44.14
72210;BME280;60113;48.762;12.302;2023-04-26T12:14:33;97224.91;;;11.02;45.95
72210;BME280;60113;48.762;12.302;2023-04-26T12:16:59;97224.66;;;11.28;48.29
72210;BME280;60113;48.762;12.302;2023-04-26T12:19:26;97209.31;;;11.44;42.48
72210;BME280;60113;48.762;12.302;2023-04-26T12:21:52;97212.59;;;11.69;42.77
72210;BME280;60113;48.762;12.302;2023-04-26T12:24:28;97222.34;;;11.90;45.58
72210;BME280;60113;48.762;12.302;2023-04-26T12:26:54;97211.09;;;11.88;46.46
72210;BME280;60113;48.762;12.302;2023-04-26T12:29:20;97216.47;;;11.86;50.62
72210;BME280;60113;48.762;12.302;2023-04-26T12:31:46;97219.03;;;11.77;43.79
72210;BME280;60113;48.762;12.302;2023-04-26T12:34:11;97212.38;;;11.61;41.25
72210;BME280;60113;48.762;12.302;2023-04-26T12:36:39;97215.91;;;11.38;45.03
72210;BME280;60113;48.762;12.302;2023-04-26T12:39:05;97211.59;;;11.37;47.03
72210;BME280;60113;48.762;12.302;2023-04-26T12:41:31;97208.25;;;11.35;46.46
72210;BME280;60113;48.762;12.302;2023-04-26T12:43:56;97209.81;;;11.71;48.52
72210;BME280;60113;48.762;12.302;2023-04-26T12:46:22;97201.47;;;11.98;42.90
72210;BME280;60113;48.762;12.302;2023-04-26T12:48:48;97201.44;;;12.31;49.19
72210;BME280;60113;48.762;12.302;2023-04-26T12:51:13;97205.28;;;12.48;43.80
72210;BME280;60113;48.762;12.302;2023-04-26T12:53:38;97198.66;;;12.54;44.57
72210;BME280;60113;48.762;12.302;2023-04-26T12:56:04;97199.34;;;12.56;48.79
72210;BME280;60113;48.762;12.302;2023-04-26T12:58:30;97201.78;;;12.69;46.13
72210;BME280;60113;48.762;12.302;2023-04-26T13:00:56;97193.88;;;13.00;44.51
72210;BME280;60113;48.762;12.302;2023-04-26T13:03:22;97192.94;;;13.11;44.76
72210;BME280;60113;48.762;12.302;2023-04-26T13:05:47;97190.16;;;13.13;43.20
72210;BME280;60113;48.762;12.302;2023-04-26T13:08:13;97190.84;;;13.15;44.34
72210;BME280;60113;48.762;12.302;2023-04-26T13:10:38;97192.75;;;13.03;46.60
72210;BME280;60113;48.762;12.302;2023-04-26T13:13:04;97194.44;;;12.73;41.06
72210;BME280;60113;48.762;12.302;2023-04-26T13:15:30;97190.28;;;12.70;40.95
72210;BME280;60113;48.762;12.302;2023-04-26T13:17:55;97192.28;;;12.57;45.67
72210;BME280;60113;48.762;12.302;2023-04-26T13:20:21;97188.50;;;12.28;40.01